Time;durP1;ratioP1;P1;durP2;ratioP2;P2;SDS_P1;SDS_P2;PMS_P1;PMS_P2;Temp;Humidity;BMP_temperature;BMP_pressure;BME280_temperature;BME280_humidity;BME280_pressure;Samples;Min_cycle;Max_cycle;Signal;HPM_P1;HPM_P2
2022/06/30 00:01:38;;;;;;;19.98;10.63;;;;;;;16.32;100.00;95256.53;5029907;28;20049;-79
2022/06/30 00:04:03;;;;;;;19.60;10.80;;;;;;;16.27;100.00;95246.03;5031201;28;20049;-79
2022/06/30 00:06:29;;;;;;;17.02;10.32;;;;;;;16.23;100.00;95245.09;5026684;28;20054;-78
2022/06/30 00:08:55;;;;;;;15.43;10.13;;;;;;;16.16;100.00;95239.47;5030957;28;20069;-79
2022/06/30 00:11:21;;;;;;;20.67;11.55;;;;;;;16.07;100.00;95240.22;5028888;28;20080;-78
2022/06/30 00:13:48;;;;;;;19.05;10.43;;;;;;;16.11;100.00;95238.53;5031117;28;20661;-78
2022/06/30 00:16:13;;;;;;;19.63;11.43;;;;;;;16.14;100.00;95236.34;5013250;28;20124;-79
2022/06/30 00:18:39;;;;;;;16.60;10.77;;;;;;;16.04;100.00;95224.94;5024798;28;20518;-79
2022/06/30 00:21:05;;;;;;;17.67;10.32;;;;;;;16.03;100.00;95226.03;5030151;28;20045;-78
2022/06/30 00:23:31;;;;;;;17.48;10.73;;;;;;;15.95;100.00;95226.81;5013003;28;20061;-79
2022/06/30 00:25:57;;;;;;;19.13;10.55;;;;;;;15.98;100.00;95220.88;5012132;28;20052;-78
2022/06/30 00:28:22;;;;;;;15.35;10.77;;;;;;;16.07;100.00;95221.66;5012673;28;20041;-79
2022/06/30 00:30:50;;;;;;;17.52;10.70;;;;;;;16.06;100.00;95236.03;5030359;28;20045;-78
2022/06/30 00:33:15;;;;;;;21.75;11.52;;;;;;;16.08;100.00;95238.38;5030687;28;20037;-78
2022/06/30 00:35:41;;;;;;;17.23;10.55;;;;;;;15.99;100.00;95235.72;5011959;28;20124;-78
2022/06/30 00:38:07;;;;;;;17.85;10.90;;;;;;;15.91;100.00;95233.81;5031020;28;20518;-78
2022/06/30 00:40:38;;;;;;;18.08;10.60;;;;;;;15.89;100.00;95222.75;5025717;28;20817;-78
2022/06/30 00:43:04;;;;;;;17.83;10.65;;;;;;;15.81;100.00;95228.81;5029564;28;20033;-78
2022/06/30 00:45:30;;;;;;;14.82;10.55;;;;;;;15.72;100.00;95218.16;5030091;28;20525;-79
2022/06/30 00:47:56;;;;;;;18.63;10.40;;;;;;;15.73;100.00;95217.84;5012327;28;20045;-78
2022/06/30 00:50:22;;;;;;;15.20;9.65;;;;;;;15.79;100.00;95215.06;5011786;28;20087;-78
2022/06/30 00:52:50;;;;;;;19.33;10.55;;;;;;;15.79;100.00;95220.38;5029922;28;20052;-78
2022/06/30 00:55:17;;;;;;;20.38;10.05;;;;;;;15.77;100.00;95212.69;5013324;28;20549;-79
2022/06/30 00:57:44;;;;;;;16.88;10.93;;;;;;;15.71;100.00;95212.06;5030840;28;20266;-78
2022/06/30 01:00:11;;;;;;;14.02;10.10;;;;;;;15.65;100.00;95205.34;5022115;28;20068;-78
2022/06/30 01:02:36;;;;;;;15.48;10.20;;;;;;;15.65;100.00;95200.03;5011784;28;20037;-79
2022/06/30 01:05:03;;;;;;;19.70;10.70;;;;;;;15.62;100.00;95211.25;5029317;28;20056;-78
2022/06/30 01:07:30;;;;;;;19.60;10.40;;;;;;;15.61;100.00;95199.09;5026902;28;20396;-78
2022/06/30 01:12:44;;;;;;;17.05;9.95;;;;;;;15.51;100.00;95202.03;5029674;28;20418;-78
2022/06/30 01:15:12;;;;;;;16.67;10.63;;;;;;;15.50;100.00;95208.41;5030253;28;20380;-78
2022/06/30 01:17:38;;;;;;;22.08;11.05;;;;;;;15.50;100.00;95213.72;5029174;28;20067;-78
2022/06/30 01:20:04;;;;;;;17.70;10.73;;;;;;;15.58;100.00;95205.00;5029416;28;20528;-78
2022/06/30 01:22:29;;;;;;;14.43;10.00;;;;;;;15.63;100.00;95207.53;5029417;28;20033;-78
2022/06/30 01:24:55;;;;;;;18.50;10.57;;;;;;;15.50;100.00;95201.25;5012223;28;20128;-78
2022/06/30 01:27:20;;;;;;;19.00;11.13;;;;;;;15.44;100.00;95199.03;5004697;28;20492;-78
2022/06/30 01:29:48;;;;;;;16.77;10.90;;;;;;;15.45;100.00;95211.22;5029563;28;20095;-78
2022/06/30 01:32:13;;;;;;;15.57;10.23;;;;;;;15.46;100.00;95199.50;5011813;28;20068;-78
2022/06/30 01:34:39;;;;;;;15.75;10.38;;;;;;;15.40;100.00;95204.97;5011343;28;20046;-78
2022/06/30 01:37:05;;;;;;;16.30;9.82;;;;;;;15.41;100.00;95200.44;5029631;28;20068;-79
2022/06/30 01:39:31;;;;;;;20.23;10.00;;;;;;;15.41;100.00;95206.53;5010970;28;20050;-79
2022/06/30 01:41:57;;;;;;;16.83;10.60;;;;;;;15.40;100.00;95204.16;5029029;28;20037;-78
2022/06/30 01:44:22;;;;;;;18.65;10.45;;;;;;;15.43;100.00;95208.88;5030108;28;20048;-78
2022/06/30 01:46:49;;;;;;;18.25;10.93;;;;;;;15.42;100.00;95202.78;5010860;28;20044;-78
2022/06/30 01:49:15;;;;;;;17.13;10.77;;;;;;;15.33;100.00;95204.63;5017236;28;20042;-78
2022/06/30 01:51:41;;;;;;;15.18;10.13;;;;;;;15.32;100.00;95202.28;5029049;28;20163;-78
2022/06/30 01:54:08;;;;;;;18.00;10.45;;;;;;;15.25;100.00;95198.19;5011715;28;20088;-79
2022/06/30 01:56:37;;;;;;;18.63;11.45;;;;;;;15.10;100.00;95205.75;5010028;28;20049;-78
2022/06/30 01:59:04;;;;;;;16.58;10.30;;;;;;;15.14;100.00;95207.53;5028798;28;20545;-79
2022/06/30 02:01:30;;;;;;;19.98;9.90;;;;;;;15.11;100.00;95212.63;5011838;28;20124;-78
2022/06/30 02:03:55;;;;;;;15.63;10.07;;;;;;;15.05;100.00;95210.09;5029114;28;20042;-78
2022/06/30 02:06:21;;;;;;;19.73;10.13;;;;;;;15.11;100.00;95223.25;5011817;28;20302;-77
2022/06/30 02:08:46;;;;;;;17.30;10.52;;;;;;;15.01;100.00;95218.97;5028960;28;20069;-78
2022/06/30 02:11:12;;;;;;;23.25;10.40;;;;;;;14.99;100.00;95227.22;5011136;28;20125;-78
2022/06/30 02:13:37;;;;;;;18.60;10.75;;;;;;;14.97;100.00;95223.31;5011380;28;20053;-79
2022/06/30 02:16:03;;;;;;;18.90;10.88;;;;;;;14.95;100.00;95231.56;5029471;28;20037;-79
2022/06/30 02:18:29;;;;;;;16.00;10.82;;;;;;;15.06;100.00;95229.47;5026646;28;20068;-79
2022/06/30 02:20:54;;;;;;;14.35;10.57;;;;;;;14.99;100.00;95227.22;5032000;28;20045;-79
2022/06/30 02:23:20;;;;;;;16.40;10.30;;;;;;;15.04;100.00;95224.47;5033420;28;20052;-79
2022/06/30 02:25:45;;;;;;;13.80;9.77;;;;;;;15.00;100.00;95228.81;5015673;28;20069;-79
2022/06/30 02:28:11;;;;;;;14.38;10.05;;;;;;;14.83;100.00;95223.41;5020158;28;20392;-79
2022/06/30 02:30:36;;;;;;;14.70;9.98;;;;;;;14.86;100.00;95228.09;5032938;28;20112;-78
2022/06/30 02:33:02;;;;;;;16.98;10.27;;;;;;;14.84;100.00;95231.06;5032626;28;20045;-78
2022/06/30 02:35:28;;;;;;;18.08;11.00;;;;;;;14.93;100.00;95231.09;5030264;28;20424;-77
2022/06/30 02:37:53;;;;;;;15.57;9.98;;;;;;;14.95;100.00;95242.16;5032843;28;20033;-78
2022/06/30 02:40:20;;;;;;;26.17;10.23;;;;;;;14.82;100.00;95237.75;5014099;28;20120;-79
2022/06/30 02:42:45;;;;;;;15.90;10.55;;;;;;;14.91;100.00;95235.91;5031980;28;20048;-78
2022/06/30 02:45:11;;;;;;;17.30;10.02;;;;;;;14.84;100.00;95224.97;5033099;28;20037;-78
2022/06/30 02:47:40;;;;;;;17.83;10.20;;;;;;;14.75;100.00;95226.78;5014825;28;20043;-78
2022/06/30 02:50:08;;;;;;;16.67;9.82;;;;;;;14.73;100.00;95235.81;5027272;28;20112;-78
2022/06/30 02:52:35;;;;;;;14.95;9.60;;;;;;;14.70;100.00;95236.41;5031971;28;20053;-78
2022/06/30 02:55:01;;;;;;;18.25;10.98;;;;;;;14.66;100.00;95245.28;5015136;28;20041;-78
2022/06/30 02:57:27;;;;;;;17.92;9.63;;;;;;;14.69;100.00;95245.44;5014671;28;20045;-78
2022/06/30 02:59:53;;;;;;;14.55;10.10;;;;;;;14.63;100.00;95241.34;5012549;28;20511;-79
2022/06/30 03:02:18;;;;;;;14.55;9.80;;;;;;;14.50;100.00;95227.06;5013174;28;20037;-79
2022/06/30 03:04:44;;;;;;;15.98;10.15;;;;;;;14.49;100.00;95235.31;5032724;28;20499;-78
2022/06/30 03:07:09;;;;;;;14.82;10.18;;;;;;;14.54;100.00;95228.03;5032558;28;20049;-79
2022/06/30 03:09:35;;;;;;;20.73;10.38;;;;;;;14.54;100.00;95233.31;5024199;28;20511;-79
2022/06/30 03:12:01;;;;;;;20.02;10.30;;;;;;;14.63;100.00;95238.72;5030217;28;20045;-78
2022/06/30 03:14:26;;;;;;;15.00;10.00;;;;;;;14.61;100.00;95232.91;5032610;28;20503;-79
2022/06/30 03:16:52;;;;;;;16.65;9.35;;;;;;;14.67;100.00;95237.03;5031887;28;20045;-78
2022/06/30 03:19:19;;;;;;;12.57;9.35;;;;;;;14.60;100.00;95231.34;5027476;28;20046;-79
2022/06/30 03:21:44;;;;;;;15.60;9.77;;;;;;;14.51;100.00;95228.63;5032309;28;20558;-79
2022/06/30 03:24:10;;;;;;;17.17;9.85;;;;;;;14.43;100.00;95239.16;5031657;28;20120;-78
2022/06/30 03:26:36;;;;;;;17.60;9.90;;;;;;;14.37;100.00;95233.97;5013808;28;20045;-79
2022/06/30 03:29:02;;;;;;;13.85;9.23;;;;;;;14.36;100.00;95232.41;5013271;28;20056;-79
2022/06/30 03:31:29;;;;;;;14.23;9.30;;;;;;;14.40;100.00;95237.13;5014146;28;20565;-78
2022/06/30 03:33:54;;;;;;;14.27;9.75;;;;;;;14.38;100.00;95246.13;5017381;28;20045;-79
2022/06/30 03:36:20;;;;;;;14.10;9.60;;;;;;;14.40;100.00;95242.41;5014455;28;20043;-78
2022/06/30 03:38:45;;;;;;;16.90;9.75;;;;;;;14.43;100.00;95247.88;5026714;28;20052;-78
2022/06/30 03:41:11;;;;;;;15.60;9.70;;;;;;;14.41;100.00;95243.97;5024925;28;20041;-78
2022/06/30 03:43:36;;;;;;;17.38;9.45;;;;;;;14.43;100.00;95247.13;5014768;28;20048;-79
2022/06/30 03:46:02;;;;;;;18.33;10.88;;;;;;;14.47;100.00;95250.72;5014079;28;20041;-79
2022/06/30 03:48:27;;;;;;;15.75;9.75;;;;;;;14.45;100.00;95244.94;5027427;28;20419;-79
2022/06/30 03:50:53;;;;;;;15.32;10.00;;;;;;;14.45;100.00;95250.22;5031899;28;20037;-79
2022/06/30 03:53:18;;;;;;;18.60;9.90;;;;;;;14.57;100.00;95255.78;5031227;28;20045;-79
2022/06/30 03:55:44;;;;;;;14.82;9.93;;;;;;;14.56;100.00;95252.34;5029832;28;20038;-79
2022/06/30 03:58:09;;;;;;;14.05;9.43;;;;;;;14.49;100.00;95251.19;5031471;28;20525;-80
2022/06/30 04:00:35;;;;;;;16.30;9.60;;;;;;;14.45;100.00;95258.16;5013964;28;20423;-78
2022/06/30 04:03:02;;;;;;;15.00;9.57;;;;;;;14.43;100.00;95257.69;5028211;28;20698;-79
2022/06/30 04:05:28;;;;;;;14.65;9.40;;;;;;;14.43;100.00;95268.28;5014325;28;20068;-79
2022/06/30 04:07:54;;;;;;;15.40;9.88;;;;;;;14.63;100.00;95267.84;5026651;28;20488;-78
2022/06/30 04:10:19;;;;;;;17.90;10.07;;;;;;;14.63;100.00;95257.25;5005527;28;20408;-79
2022/06/30 04:12:45;;;;;;;20.10;10.10;;;;;;;14.55;100.00;95250.00;5030103;28;20076;-79
2022/06/30 04:15:10;;;;;;;14.75;10.05;;;;;;;14.54;100.00;95249.22;5030818;28;20049;-78
2022/06/30 04:17:36;;;;;;;17.77;9.68;;;;;;;14.59;100.00;95248.31;5013487;28;20060;-79
2022/06/30 04:20:03;;;;;;;17.25;9.68;;;;;;;14.65;100.00;95256.94;5012817;28;20251;-78
2022/06/30 04:22:29;;;;;;;16.02;9.98;;;;;;;14.65;100.00;95252.44;5013044;28;20052;-79
2022/06/30 04:24:54;;;;;;;15.55;9.55;;;;;;;14.68;100.00;95248.41;5031166;28;20041;-79
2022/06/30 04:27:20;;;;;;;15.57;9.75;;;;;;;14.84;100.00;95259.41;5024746;28;20052;-79
2022/06/30 04:29:46;;;;;;;17.42;10.18;;;;;;;14.85;100.00;95242.44;5012015;28;20094;-78
2022/06/30 04:34:55;;;;;;;16.08;10.50;;;;;;;14.90;100.00;95255.56;5026043;28;20274;-77
2022/06/30 04:37:21;;;;;;;27.35;11.10;;;;;;;14.91;100.00;95257.09;5030516;28;20048;-78
2022/06/30 04:39:46;;;;;;;16.52;10.45;;;;;;;14.95;100.00;95258.06;5027791;28;20041;-78
2022/06/30 04:42:12;;;;;;;18.88;10.82;;;;;;;15.02;100.00;95253.13;5012522;28;20048;-78
2022/06/30 04:44:37;;;;;;;20.67;10.60;;;;;;;15.10;100.00;95250.81;5030272;28;20037;-79
2022/06/30 04:47:03;;;;;;;19.55;11.27;;;;;;;15.23;100.00;95257.91;5030345;28;20042;-79
2022/06/30 04:49:28;;;;;;;22.20;11.05;;;;;;;15.27;100.00;95250.94;5024130;28;20053;-78
2022/06/30 04:51:54;;;;;;;21.27;10.93;;;;;;;15.36;100.00;95251.72;5030180;28;20107;-79
2022/06/30 04:54:19;;;;;;;17.88;11.52;;;;;;;15.47;100.00;95256.75;5013652;28;20458;-78
2022/06/30 04:56:45;;;;;;;16.75;11.20;;;;;;;15.47;100.00;95251.47;5029944;28;20078;-79
2022/06/30 04:59:10;;;;;;;22.25;11.20;;;;;;;15.60;100.00;95261.16;5027700;28;20455;-79
2022/06/30 05:01:36;;;;;;;20.65;11.18;;;;;;;15.75;100.00;95246.72;5029653;28;20489;-79
2022/06/30 05:04:02;;;;;;;18.48;10.35;;;;;;;15.88;100.00;95251.13;5029953;28;20841;-79
2022/06/30 05:06:27;;;;;;;16.20;10.30;;;;;;;15.92;100.00;95256.63;5009987;28;20042;-80
2022/06/30 05:08:53;;;;;;;20.40;10.15;;;;;;;15.99;100.00;95251.63;5029533;28;20041;-79
2022/06/30 05:11:18;;;;;;;19.13;10.32;;;;;;;16.02;100.00;95244.91;5012425;28;20518;-80
2022/06/30 05:13:44;;;;;;;18.38;10.02;;;;;;;16.15;100.00;95243.22;5028752;28;20045;-79
2022/06/30 05:16:09;;;;;;;18.63;9.55;;;;;;;16.07;100.00;95236.81;5030483;28;20476;-79
2022/06/30 05:18:35;;;;;;;14.93;9.93;;;;;;;16.13;100.00;95230.25;5029570;28;20049;-79
2022/06/30 05:21:01;;;;;;;16.85;10.00;;;;;;;16.21;100.00;95226.06;5011444;28;20049;-79
2022/06/30 05:23:26;;;;;;;19.67;10.35;;;;;;;16.30;100.00;95224.16;5029821;28;20050;-79
2022/06/30 05:28:36;;;;;;;18.02;9.57;;;;;;;16.66;100.00;95235.56;5024135;28;20053;-79
2022/06/30 05:31:01;;;;;;;17.02;9.48;;;;;;;16.69;100.00;95235.69;5030864;28;20108;-80
2022/06/30 05:33:26;;;;;;;14.75;10.02;;;;;;;16.69;100.00;95230.38;5029846;28;20411;-78
2022/06/30 05:35:53;;;;;;;15.27;9.82;;;;;;;16.69;100.00;95229.63;5011859;28;20099;-78
2022/06/30 05:38:20;;;;;;;15.65;9.75;;;;;;;16.64;100.00;95235.88;5026909;28;20045;-79
2022/06/30 05:40:46;;;;;;;13.10;8.93;;;;;;;16.61;100.00;95239.16;5009770;28;20494;-78
2022/06/30 05:43:13;;;;;;;14.20;8.93;;;;;;;16.56;100.00;95232.13;5029127;28;20052;-79
2022/06/30 05:45:40;;;;;;;13.65;9.52;;;;;;;16.62;100.00;95241.50;5011883;28;20048;-79
2022/06/30 05:48:07;;;;;;;16.73;9.77;;;;;;;16.64;100.00;95238.53;5023662;28;20038;-78
2022/06/30 05:50:33;;;;;;;15.30;9.85;;;;;;;16.71;100.00;95238.84;5025708;28;20041;-79
2022/06/30 05:52:58;;;;;;;14.48;9.02;;;;;;;16.90;100.00;95235.09;5011159;28;20522;-78
2022/06/30 05:55:24;;;;;;;16.52;9.95;;;;;;;16.92;100.00;95232.88;5011887;28;20041;-78
2022/06/30 05:57:55;;;;;;;16.50;8.93;;;;;;;17.21;100.00;95234.06;5026203;28;20487;-78
2022/06/30 06:00:23;;;;;;;15.23;8.75;;;;;;;17.54;100.00;95244.88;5027796;28;20115;-78
2022/06/30 06:02:49;;;;;;;16.67;9.98;;;;;;;17.61;100.00;95241.72;5028791;28;20447;-77
2022/06/30 06:05:15;;;;;;;14.48;8.35;;;;;;;17.62;100.00;95248.59;5029103;28;20042;-79
2022/06/30 06:07:41;;;;;;;18.25;8.75;;;;;;;17.59;100.00;95238.59;5027364;28;20042;-80
2022/06/30 06:10:07;;;;;;;16.08;9.00;;;;;;;17.56;100.00;95239.25;5021517;28;20041;-77
2022/06/30 06:12:32;;;;;;;13.95;8.55;;;;;;;17.56;100.00;95240.00;5009930;28;20045;-76
2022/06/30 06:14:58;;;;;;;17.20;9.32;;;;;;;17.56;100.00;95239.25;5030010;28;20045;-76
2022/06/30 06:17:24;;;;;;;16.77;8.88;;;;;;;17.54;100.00;95233.44;5018404;28;20060;-79
2022/06/30 06:19:49;;;;;;;13.90;8.95;;;;;;;17.56;100.00;95244.56;5026326;28;20038;-83
2022/06/30 06:22:15;;;;;;;12.35;8.35;;;;;;;17.63;100.00;95244.84;5010384;28;20451;-84
2022/06/30 06:24:40;;;;;;;16.05;9.05;;;;;;;17.92;100.00;95245.97;5009722;28;20037;-80
2022/06/30 06:27:06;;;;;;;18.35;8.93;;;;;;;17.88;100.00;95245.03;5026949;28;20033;-82
2022/06/30 06:29:31;;;;;;;14.18;8.68;;;;;;;17.78;100.00;95238.94;5028678;28;20040;-84
2022/06/30 06:31:57;;;;;;;17.23;9.23;;;;;;;17.99;100.00;95251.56;5009952;28;20045;-83
2022/06/30 06:34:22;;;;;;;17.15;9.20;;;;;;;17.96;100.00;95246.88;5022844;28;20041;-81
2022/06/30 06:36:48;;;;;;;15.45;8.55;;;;;;;17.98;100.00;95244.66;5022856;28;20503;-82
2022/06/30 06:39:13;;;;;;;13.30;9.32;;;;;;;18.03;100.00;95241.84;5027048;28;20079;-83
2022/06/30 06:41:39;;;;;;;16.02;8.63;;;;;;;18.06;100.00;95243.84;5026131;28;20083;-83
2022/06/30 06:44:04;;;;;;;21.60;10.07;;;;;;;18.21;100.00;95236.38;5011350;28;20038;-81
2022/06/30 06:46:31;;;;;;;15.52;8.98;;;;;;;18.68;100.00;95241.50;5021773;28;20458;-85
2022/06/30 06:49:01;;;;;;;17.02;9.18;;;;;;;18.92;100.00;95237.34;5022436;28;20109;-83
2022/06/30 06:51:27;;;;;;;17.27;8.57;;;;;;;18.79;100.00;95229.31;5009213;28;20048;-84
2022/06/30 06:53:53;;;;;;;16.48;9.30;;;;;;;18.81;100.00;95232.41;5028585;28;20045;-82
2022/06/30 06:56:18;;;;;;;22.27;8.90;;;;;;;19.05;100.00;95225.63;5029104;28;20038;-82
2022/06/30 06:58:44;;;;;;;16.30;8.40;;;;;;;19.35;100.00;95233.44;5022615;28;20038;-83
2022/06/30 07:01:10;;;;;;;16.92;8.15;;;;;;;19.44;100.00;95234.13;5010138;28;20053;-84
2022/06/30 07:03:36;;;;;;;13.98;7.60;;;;;;;19.49;100.00;95223.22;5028812;28;20052;-87
2022/06/30 07:06:01;;;;;;;18.65;8.40;;;;;;;19.37;100.00;95204.56;5032699;28;20080;-88
2022/06/30 07:08:27;;;;;;;17.25;8.38;;;;;;;19.35;100.00;95217.44;5015356;28;20057;-87
2022/06/30 07:10:55;;;;;;;15.32;7.82;;;;;;;19.37;100.00;95220.56;5027526;28;20116;-83
2022/06/30 07:13:21;;;;;;;12.65;7.57;;;;;;;19.42;100.00;95217.66;5013423;28;20068;-85
2022/06/30 07:15:46;;;;;;;15.48;7.93;;;;;;;19.38;100.00;95216.78;5014786;28;20049;-84
2022/06/30 07:18:11;;;;;;;14.95;7.68;;;;;;;19.14;100.00;95207.63;5016001;28;20726;-84
2022/06/30 07:20:37;;;;;;;16.10;8.23;;;;;;;19.30;100.00;95213.09;5027332;28;20046;-82
2022/06/30 07:23:02;;;;;;;11.60;7.68;;;;;;;19.82;100.00;95209.00;5013061;28;20038;-83
2022/06/30 07:25:28;;;;;;;16.25;7.43;;;;;;;20.12;100.00;95205.28;5013537;28;20123;-84
2022/06/30 07:27:53;;;;;;;12.65;7.47;;;;;;;20.13;100.00;95204.94;5011114;28;20148;-83
2022/06/30 07:30:19;;;;;;;20.00;8.02;;;;;;;20.13;100.00;95202.28;5030899;28;20037;-82
2022/06/30 07:32:44;;;;;;;14.77;7.47;;;;;;;20.43;100.00;95201.97;5013287;28;20591;-83
2022/06/30 07:35:10;;;;;;;15.88;7.20;;;;;;;20.60;100.00;95199.00;5013529;28;20048;-84
2022/06/30 07:37:39;;;;;;;13.18;6.95;;;;;;;20.30;100.00;95205.78;5028272;28;20045;-82
2022/06/30 07:40:06;;;;;;;12.43;7.20;;;;;;;20.33;100.00;95203.22;5017822;28;20045;-86
2022/06/30 07:42:32;;;;;;;13.95;7.50;;;;;;;20.41;100.00;95196.97;5018085;28;20044;-83
2022/06/30 07:45:00;;;;;;;12.68;7.82;;;;;;;20.69;100.00;95190.09;5043029;28;20037;-82
2022/06/30 07:47:26;;;;;;;12.98;7.05;;;;;;;20.68;100.00;95199.22;5016816;28;20040;-83
2022/06/30 07:49:51;;;;;;;15.45;7.38;;;;;;;20.74;100.00;95197.84;5029387;28;20112;-83
2022/06/30 07:52:17;;;;;;;11.77;7.50;;;;;;;20.62;100.00;95184.53;5031693;28;20407;-83
2022/06/30 07:54:43;;;;;;;13.43;7.53;;;;;;;20.42;100.00;95192.38;5035227;28;20455;-86
2022/06/30 07:57:08;;;;;;;15.52;7.40;;;;;;;20.56;100.00;95195.44;5033739;28;20097;-83
2022/06/30 07:59:34;;;;;;;14.55;7.53;;;;;;;20.46;100.00;95195.94;5032803;28;20045;-82
2022/06/30 08:02:00;;;;;;;12.50;7.28;;;;;;;20.29;100.00;95193.56;5030057;28;20037;-83
2022/06/30 08:04:26;;;;;;;13.98;7.95;;;;;;;20.88;100.00;95197.44;5031218;28;20647;-83
2022/06/30 08:06:52;;;;;;;11.73;7.45;;;;;;;21.10;99.30;95183.50;5031005;28;20033;-81
2022/06/30 08:09:18;;;;;;;15.70;7.95;;;;;;;21.10;99.19;95188.84;5026342;28;20044;-83
2022/06/30 08:11:44;;;;;;;15.68;7.88;;;;;;;21.43;99.35;95189.59;5030463;28;20049;-83
2022/06/30 08:14:09;;;;;;;13.90;7.22;;;;;;;21.17;100.00;95188.22;5012937;28;20046;-83
2022/06/30 08:16:35;;;;;;;14.18;7.75;;;;;;;21.31;100.00;95192.38;5031466;28;20120;-83
2022/06/30 08:19:00;;;;;;;10.68;7.05;;;;;;;21.40;99.13;95195.66;5014268;28;20091;-82
2022/06/30 08:21:26;;;;;;;10.88;7.40;;;;;;;21.40;100.00;95195.66;5013364;28;20049;-83
2022/06/30 08:23:52;;;;;;;16.42;7.25;;;;;;;21.43;96.46;95184.25;5013019;28;20136;-83
2022/06/30 08:26:17;;;;;;;10.95;6.70;;;;;;;21.24;100.00;95183.03;5028756;28;20462;-82
2022/06/30 08:28:43;;;;;;;19.35;7.80;;;;;;;21.29;100.00;95188.16;5008190;28;20040;-84
2022/06/30 08:31:08;;;;;;;17.52;8.05;;;;;;;21.15;98.37;95182.44;5031269;28;20033;-83
2022/06/30 08:33:34;;;;;;;12.07;7.63;;;;;;;21.11;100.00;95181.59;5029392;28;20140;-81
2022/06/30 08:36:00;;;;;;;18.15;8.98;;;;;;;21.27;97.38;95177.00;5009011;28;20052;-81
2022/06/30 08:38:26;;;;;;;14.13;7.65;;;;;;;21.71;94.92;95178.03;5028139;28;20045;-82
2022/06/30 08:43:36;;;;;;;12.00;7.07;;;;;;;21.80;93.51;95162.53;5029781;28;20049;-78
2022/06/30 08:46:02;;;;;;;12.27;7.93;;;;;;;21.59;95.83;95177.00;5025751;28;20544;-81
2022/06/30 08:48:29;;;;;;;13.27;7.30;;;;;;;21.85;94.33;95162.28;5028705;28;20056;-81
2022/06/30 08:51:03;;;;;;;11.05;6.68;;;;;;;22.27;87.91;95166.19;5030636;28;20384;-81
2022/06/30 08:53:37;;;;;;;12.65;7.05;;;;;;;22.33;89.65;95158.66;5011883;28;20045;-82
2022/06/30 08:56:04;;;;;;;14.18;7.13;;;;;;;22.40;86.91;95169.53;5029753;28;20042;-81
2022/06/30 08:58:30;;;;;;;11.45;7.05;;;;;;;22.55;88.06;95159.81;5025550;28;20046;-81
2022/06/30 09:00:56;;;;;;;16.10;6.75;;;;;;;22.64;89.32;95158.47;5029647;28;20068;-81
2022/06/30 09:03:21;;;;;;;12.70;7.28;;;;;;;22.58;86.99;95149.16;5012114;28;20112;-81
2022/06/30 09:05:47;;;;;;;18.85;7.45;;;;;;;22.46;86.48;95162.72;5029920;28;20633;-81
2022/06/30 09:08:13;;;;;;;10.68;6.80;;;;;;;22.87;83.91;95159.63;5028286;28;20045;-81
2022/06/30 09:10:50;;;;;;;10.23;6.78;;;;;;;22.64;81.97;95147.75;5007752;28;20042;-81
2022/06/30 09:13:17;;;;;;;11.23;6.47;;;;;;;22.66;86.23;95150.84;5029405;28;20045;-81
2022/06/30 09:15:42;;;;;;;20.13;6.88;;;;;;;22.90;82.50;95146.28;5011991;28;20052;-81
2022/06/30 09:18:20;;;;;;;14.07;6.60;;;;;;;23.08;81.87;95151.94;5011228;28;20041;-80
2022/06/30 09:20:46;;;;;;;13.65;6.65;;;;;;;22.89;84.28;95152.00;5029997;28;20042;-81
2022/06/30 09:23:29;;;;;;;15.43;6.75;;;;;;;23.02;82.66;95154.13;5012714;28;20099;-81
2022/06/30 09:26:00;;;;;;;11.27;6.65;;;;;;;23.37;81.29;95165.06;5013206;28;20049;-80
2022/06/30 09:28:50;;;;;;;12.82;6.30;;;;;;;23.56;78.52;95156.13;5017925;28;20049;-80
2022/06/30 09:31:31;;;;;;;14.20;6.53;;;;;;;23.23;84.01;95154.88;5026028;28;20525;-80
2022/06/30 09:34:11;;;;;;;10.30;6.00;;;;;;;23.18;80.29;95147.91;5029760;28;20072;-80
2022/06/30 09:36:38;;;;;;;9.50;6.15;;;;;;;23.68;80.83;95153.25;5023771;28;20042;-80
2022/06/30 09:39:09;;;;;;;12.40;6.15;;;;;;;23.57;80.35;95142.34;5024463;28;20037;-80
2022/06/30 09:41:39;;;;;;;10.90;6.18;;;;;;;23.58;77.48;95141.22;5011718;28;20060;-80
2022/06/30 09:44:06;;;;;;;12.25;7.32;;;;;;;23.53;81.80;95152.25;5031181;28;20041;-80
2022/06/30 09:46:36;;;;;;;15.00;6.22;;;;;;;23.80;76.82;95138.81;5011413;28;20092;-80
2022/06/30 09:49:04;;;;;;;13.13;6.68;;;;;;;23.77;78.14;95142.25;5025242;28;20037;-80
2022/06/30 09:51:31;;;;;;;14.05;6.50;;;;;;;24.00;80.61;95153.69;5012432;28;20041;-79
2022/06/30 09:54:07;;;;;;;11.68;6.47;;;;;;;23.90;77.26;95143.59;5029197;28;20041;-79
2022/06/30 09:56:34;;;;;;;15.10;6.45;;;;;;;23.86;80.08;95143.56;5025089;28;20714;-80
2022/06/30 09:58:59;;;;;;;12.20;6.03;;;;;;;24.38;74.26;95146.47;5010615;28;20045;-79
2022/06/30 10:01:25;;;;;;;13.82;6.50;;;;;;;24.38;78.04;95140.34;5029288;28;20100;-80
2022/06/30 10:04:04;;;;;;;11.90;5.90;;;;;;;24.18;75.85;95143.19;5028813;28;20102;-79
2022/06/30 10:06:29;;;;;;;11.63;5.68;;;;;;;24.56;74.85;95140.50;5009672;28;20131;-80
2022/06/30 10:08:56;;;;;;;8.95;5.50;;;;;;;24.65;74.77;95146.41;5018200;28;20042;-80
2022/06/30 10:11:24;;;;;;;13.63;6.10;;;;;;;24.66;73.72;95137.19;5017468;28;20045;-79
2022/06/30 10:13:49;;;;;;;8.68;5.63;;;;;;;24.68;72.39;95132.22;5023547;28;20310;-81
2022/06/30 10:16:16;;;;;;;11.80;5.70;;;;;;;24.92;68.62;95135.50;5034085;28;20068;-78
2022/06/30 10:18:42;;;;;;;10.90;5.75;;;;;;;25.16;70.46;95133.41;5007832;28;20084;-80
2022/06/30 10:21:08;;;;;;;9.05;6.00;;;;;;;25.53;71.25;95140.59;5034534;28;20037;-78
2022/06/30 10:23:34;;;;;;;11.15;5.93;;;;;;;25.67;69.00;95124.50;5027495;28;20465;-77
2022/06/30 10:26:02;;;;;;;8.52;5.90;;;;;;;25.71;67.54;95125.31;5012141;28;20045;-77
2022/06/30 10:28:28;;;;;;;12.05;6.72;;;;;;;25.67;67.69;95124.50;5029168;28;20069;-77
2022/06/30 10:31:22;;;;;;;11.93;5.80;;;;;;;26.05;71.02;95117.03;5030359;28;20049;-79
2022/06/30 10:33:58;;;;;;;8.60;5.00;;;;;;;26.25;64.54;95119.44;5024122;28;20049;-78
2022/06/30 10:36:32;;;;;;;11.38;5.57;;;;;;;26.36;65.59;95108.66;5010231;28;20282;-78
2022/06/30 10:39:07;;;;;;;12.80;5.28;;;;;;;26.36;63.08;95120.25;5027267;28;20052;-78
2022/06/30 10:41:46;;;;;;;9.20;4.93;;;;;;;26.57;62.11;95113.34;5026498;28;20048;-77
2022/06/30 10:44:14;;;;;;;11.70;5.30;;;;;;;26.74;63.40;95112.63;5026045;28;20044;-78
2022/06/30 10:46:51;;;;;;;13.20;6.00;;;;;;;26.97;61.91;95104.16;5032722;28;20057;-77
2022/06/30 10:49:17;;;;;;;9.25;4.95;;;;;;;26.88;60.14;95101.06;5027091;28;20044;-78
2022/06/30 10:51:45;;;;;;;11.35;5.28;;;;;;;27.01;57.91;95101.47;5031693;28;20057;-79
2022/06/30 10:54:28;;;;;;;11.07;5.30;;;;;;;27.39;60.49;95096.44;5013897;28;20056;-78
2022/06/30 10:56:55;;;;;;;12.97;4.40;;;;;;;27.58;56.58;95097.19;5011850;28;20041;-77
2022/06/30 10:59:32;;;;;;;10.30;4.40;;;;;;;27.39;56.37;95096.44;5028857;28;20053;-78
2022/06/30 11:02:07;;;;;;;10.48;5.22;;;;;;;27.63;56.79;95085.97;5030933;28;20045;-79
2022/06/30 11:04:36;;;;;;;10.07;5.00;;;;;;;27.72;55.53;95080.91;5032306;28;20045;-78
2022/06/30 11:07:07;;;;;;;10.68;4.47;;;;;;;28.09;55.98;95093.19;5030464;28;20053;-78
2022/06/30 11:09:47;;;;;;;9.75;4.35;;;;;;;29.42;49.82;95088.06;5009179;28;20042;-79
2022/06/30 11:12:37;;;;;;;9.70;5.20;;;;;;;29.72;49.89;95079.22;5031189;28;20041;-77
2022/06/30 11:15:03;;;;;;;7.65;4.60;;;;;;;29.73;50.44;95089.66;5002826;28;20579;-79
2022/06/30 11:17:31;;;;;;;9.35;4.38;;;;;;;30.34;48.05;95081.97;5029867;28;20164;-79
2022/06/30 11:20:12;;;;;;;12.48;4.47;;;;;;;29.95;47.05;95077.81;5030429;28;20053;-79
2022/06/30 11:22:38;;;;;;;8.38;3.97;;;;;;;30.67;49.16;95069.50;5004824;28;20052;-79
2022/06/30 11:25:05;;;;;;;8.98;4.50;;;;;;;29.57;48.66;95066.97;5032401;28;20048;-79
2022/06/30 11:27:35;;;;;;;8.88;4.50;;;;;;;28.80;50.01;95069.56;5029081;28;20617;-78